sensor_id;sensor_type;location;lat;lon;timestamp;P1;durP1;ratioP1;P2;durP2;ratioP2
36787;SDS011;22738;45.560;9.434;2023-04-06T00:06:16;19.25;;;8.95;;
36787;SDS011;22738;45.560;9.434;2023-04-06T00:12:58;17.52;;;8.48;;
36787;SDS011;22738;45.560;9.434;2023-04-06T00:19:41;22.20;;;9.80;;
36787;SDS011;22738;45.560;9.434;2023-04-06T00:26:22;13.48;;;7.63;;
36787;SDS011;22738;45.560;9.434;2023-04-06T00:33:04;18.95;;;9.15;;
36787;SDS011;22738;45.560;9.434;2023-04-06T00:39:45;19.77;;;9.35;;
36787;SDS011;22738;45.560;9.434;2023-04-06T00:46:26;17.77;;;10.20;;
36787;SDS011;22738;45.560;9.434;2023-04-06T00:53:07;21.90;;;10.52;;
36787;SDS011;22738;45.560;9.434;2023-04-06T00:59:48;27.23;;;9.82;;
36787;SDS011;22738;45.560;9.434;2023-04-06T01:06:29;21.10;;;9.75;;
36787;SDS011;22738;45.560;9.434;2023-04-06T01:13:14;18.73;;;9.60;;
36787;SDS011;22738;45.560;9.434;2023-04-06T01:20:01;21.40;;;9.85;;
36787;SDS011;22738;45.560;9.434;2023-04-06T01:26:46;21.33;;;9.70;;
36787;SDS011;22738;45.560;9.434;2023-04-06T01:33:27;17.85;;;9.48;;
36787;SDS011;22738;45.560;9.434;2023-04-06T01:40:18;22.05;;;9.88;;
36787;SDS011;22738;45.560;9.434;2023-04-06T01:47:03;16.80;;;9.07;;
36787;SDS011;22738;45.560;9.434;2023-04-06T01:53:44;19.73;;;9.32;;
36787;SDS011;22738;45.560;9.434;2023-04-06T02:00:26;17.48;;;8.57;;
36787;SDS011;22738;45.560;9.434;2023-04-06T02:07:09;18.27;;;8.88;;
36787;SDS011;22738;45.560;9.434;2023-04-06T02:13:52;16.25;;;7.63;;
36787;SDS011;22738;45.560;9.434;2023-04-06T02:20:33;13.53;;;7.23;;
36787;SDS011;22738;45.560;9.434;2023-04-06T02:27:14;21.02;;;8.27;;
36787;SDS011;22738;45.560;9.434;2023-04-06T02:33:55;21.50;;;8.63;;
36787;SDS011;22738;45.560;9.434;2023-04-06T02:40:37;14.77;;;8.30;;
36787;SDS011;22738;45.560;9.434;2023-04-06T02:54:12;16.73;;;8.82;;
36787;SDS011;22738;45.560;9.434;2023-04-06T03:00:53;15.05;;;7.65;;
36787;SDS011;22738;45.560;9.434;2023-04-06T03:07:34;17.42;;;8.38;;
36787;SDS011;22738;45.560;9.434;2023-04-06T03:14:16;19.33;;;8.50;;
36787;SDS011;22738;45.560;9.434;2023-04-06T03:21:03;18.23;;;8.52;;
36787;SDS011;22738;45.560;9.434;2023-04-06T03:27:57;16.25;;;8.82;;
36787;SDS011;22738;45.560;9.434;2023-04-06T03:34:39;16.88;;;8.13;;
36787;SDS011;22738;45.560;9.434;2023-04-06T03:41:22;26.67;;;8.97;;
36787;SDS011;22738;45.560;9.434;2023-04-06T03:48:18;19.48;;;8.27;;
36787;SDS011;22738;45.560;9.434;2023-04-06T03:54:59;16.20;;;7.82;;
36787;SDS011;22738;45.560;9.434;2023-04-06T04:01:40;14.57;;;7.50;;
36787;SDS011;22738;45.560;9.434;2023-04-06T04:08:21;14.02;;;7.60;;
36787;SDS011;22738;45.560;9.434;2023-04-06T04:15:02;16.95;;;8.70;;
36787;SDS011;22738;45.560;9.434;2023-04-06T04:21:44;14.75;;;7.78;;
36787;SDS011;22738;45.560;9.434;2023-04-06T04:28:28;29.65;;;8.43;;
36787;SDS011;22738;45.560;9.434;2023-04-06T04:35:10;18.27;;;8.50;;
36787;SDS011;22738;45.560;9.434;2023-04-06T04:41:56;17.70;;;7.95;;
36787;SDS011;22738;45.560;9.434;2023-04-06T04:48:38;18.25;;;8.38;;
36787;SDS011;22738;45.560;9.434;2023-04-06T04:55:21;18.45;;;7.43;;
36787;SDS011;22738;45.560;9.434;2023-04-06T05:02:06;12.68;;;7.07;;
36787;SDS011;22738;45.560;9.434;2023-04-06T05:08:59;16.47;;;7.30;;
36787;SDS011;22738;45.560;9.434;2023-04-06T05:15:43;11.88;;;6.82;;
36787;SDS011;22738;45.560;9.434;2023-04-06T05:22:37;16.60;;;7.38;;
36787;SDS011;22738;45.560;9.434;2023-04-06T05:29:22;20.55;;;7.45;;
36787;SDS011;22738;45.560;9.434;2023-04-06T05:36:03;25.23;;;8.15;;
36787;SDS011;22738;45.560;9.434;2023-04-06T05:42:46;29.95;;;8.00;;
36787;SDS011;22738;45.560;9.434;2023-04-06T05:49:27;14.38;;;6.70;;
36787;SDS011;22738;45.560;9.434;2023-04-06T05:56:10;18.55;;;7.07;;
36787;SDS011;22738;45.560;9.434;2023-04-06T06:02:52;19.45;;;8.05;;
36787;SDS011;22738;45.560;9.434;2023-04-06T06:09:38;28.83;;;8.25;;
36787;SDS011;22738;45.560;9.434;2023-04-06T06:16:32;12.27;;;7.00;;
36787;SDS011;22738;45.560;9.434;2023-04-06T06:23:14;13.13;;;6.53;;
36787;SDS011;22738;45.560;9.434;2023-04-06T06:29:57;18.80;;;6.07;;
36787;SDS011;22738;45.560;9.434;2023-04-06T06:36:39;10.27;;;5.78;;
36787;SDS011;22738;45.560;9.434;2023-04-06T06:43:23;12.07;;;5.97;;
36787;SDS011;22738;45.560;9.434;2023-04-06T06:50:13;10.32;;;6.40;;
36787;SDS011;22738;45.560;9.434;2023-04-06T06:56:54;10.10;;;6.05;;
36787;SDS011;22738;45.560;9.434;2023-04-06T07:03:36;12.82;;;5.15;;
36787;SDS011;22738;45.560;9.434;2023-04-06T07:10:17;11.73;;;5.28;;
36787;SDS011;22738;45.560;9.434;2023-04-06T07:16:58;28.38;;;6.25;;
36787;SDS011;22738;45.560;9.434;2023-04-06T07:23:39;19.02;;;5.90;;
36787;SDS011;22738;45.560;9.434;2023-04-06T07:30:21;13.80;;;5.22;;
36787;SDS011;22738;45.560;9.434;2023-04-06T07:37:03;8.27;;;5.13;;
36787;SDS011;22738;45.560;9.434;2023-04-06T07:43:44;8.73;;;4.55;;
36787;SDS011;22738;45.560;9.434;2023-04-06T07:50:26;18.48;;;4.90;;
36787;SDS011;22738;45.560;9.434;2023-04-06T07:57:08;7.32;;;3.88;;
36787;SDS011;22738;45.560;9.434;2023-04-06T08:03:49;8.48;;;4.35;;
36787;SDS011;22738;45.560;9.434;2023-04-06T08:10:31;12.98;;;5.50;;
36787;SDS011;22738;45.560;9.434;2023-04-06T08:17:13;11.20;;;4.75;;
36787;SDS011;22738;45.560;9.434;2023-04-06T08:23:54;8.95;;;5.55;;
36787;SDS011;22738;45.560;9.434;2023-04-06T08:30:35;10.73;;;4.85;;
36787;SDS011;22738;45.560;9.434;2023-04-06T08:37:17;6.80;;;4.93;;
36787;SDS011;22738;45.560;9.434;2023-04-06T08:44:00;8.98;;;4.63;;
36787;SDS011;22738;45.560;9.434;2023-04-06T08:50:43;8.50;;;4.03;;
36787;SDS011;22738;45.560;9.434;2023-04-06T08:57:25;11.65;;;4.80;;
36787;SDS011;22738;45.560;9.434;2023-04-06T09:04:07;9.73;;;3.97;;
36787;SDS011;22738;45.560;9.434;2023-04-06T09:10:52;9.60;;;5.25;;
36787;SDS011;22738;45.560;9.434;2023-04-06T09:17:33;14.23;;;5.63;;
36787;SDS011;22738;45.560;9.434;2023-04-06T09:24:15;8.05;;;4.85;;
36787;SDS011;22738;45.560;9.434;2023-04-06T09:31:03;12.45;;;5.97;;
36787;SDS011;22738;45.560;9.434;2023-04-06T09:37:44;10.40;;;4.70;;
36787;SDS011;22738;45.560;9.434;2023-04-06T09:44:26;8.05;;;5.35;;
36787;SDS011;22738;45.560;9.434;2023-04-06T09:51:07;9.20;;;6.57;;
36787;SDS011;22738;45.560;9.434;2023-04-06T09:57:58;8.75;;;5.68;;
36787;SDS011;22738;45.560;9.434;2023-04-06T10:11:38;11.40;;;5.93;;
36787;SDS011;22738;45.560;9.434;2023-04-06T10:18:20;13.83;;;6.63;;
36787;SDS011;22738;45.560;9.434;2023-04-06T10:25:02;10.65;;;5.75;;
36787;SDS011;22738;45.560;9.434;2023-04-06T10:31:44;17.67;;;6.15;;
36787;SDS011;22738;45.560;9.434;2023-04-06T10:38:38;10.13;;;5.82;;
36787;SDS011;22738;45.560;9.434;2023-04-06T10:45:24;12.60;;;6.63;;
36787;SDS011;22738;45.560;9.434;2023-04-06T10:52:06;10.20;;;5.72;;
36787;SDS011;22738;45.560;9.434;2023-04-06T10:58:48;9.77;;;5.88;;
36787;SDS011;22738;45.560;9.434;2023-04-06T11:05:31;13.13;;;6.00;;
36787;SDS011;22738;45.560;9.434;2023-04-06T11:12:22;11.45;;;6.93;;
36787;SDS011;22738;45.560;9.434;2023-04-06T11:19:07;14.73;;;6.15;;
36787;SDS011;22738;45.560;9.434;2023-04-06T11:25:52;10.88;;;6.53;;
36787;SDS011;22738;45.560;9.434;2023-04-06T11:32:40;12.88;;;6.68;;
36787;SDS011;22738;45.560;9.434;2023-04-06T11:39:23;10.50;;;6.57;;
36787;SDS011;22738;45.560;9.434;2023-04-06T11:46:06;14.90;;;7.65;;
36787;SDS011;22738;45.560;9.434;2023-04-06T11:52:57;15.83;;;6.87;;
36787;SDS011;22738;45.560;9.434;2023-04-06T11:59:44;10.73;;;6.85;;
36787;SDS011;22738;45.560;9.434;2023-04-06T12:06:27;13.73;;;7.07;;
36787;SDS011;22738;45.560;9.434;2023-04-06T12:13:08;11.32;;;6.55;;
36787;SDS011;22738;45.560;9.434;2023-04-06T12:19:52;16.48;;;7.15;;
36787;SDS011;22738;45.560;9.434;2023-04-06T12:26:34;14.60;;;7.50;;
36787;SDS011;22738;45.560;9.434;2023-04-06T12:33:19;12.18;;;6.63;;
36787;SDS011;22738;45.560;9.434;2023-04-06T12:40:00;13.75;;;8.55;;
36787;SDS011;22738;45.560;9.434;2023-04-06T12:46:41;18.60;;;7.43;;
36787;SDS011;22738;45.560;9.434;2023-04-06T12:53:23;9.90;;;6.65;;
36787;SDS011;22738;45.560;9.434;2023-04-06T13:00:05;15.38;;;7.63;;
36787;SDS011;22738;45.560;9.434;2023-04-06T13:06:46;14.10;;;7.45;;
36787;SDS011;22738;45.560;9.434;2023-04-06T13:13:29;17.15;;;7.90;;
36787;SDS011;22738;45.560;9.434;2023-04-06T13:20:11;12.37;;;7.57;;
36787;SDS011;22738;45.560;9.434;2023-04-06T13:26:55;15.77;;;8.15;;
36787;SDS011;22738;45.560;9.434;2023-04-06T13:33:36;16.85;;;8.70;;
36787;SDS011;22738;45.560;9.434;2023-04-06T13:40:18;12.07;;;7.10;;
36787;SDS011;22738;45.560;9.434;2023-04-06T13:46:59;21.25;;;8.50;;
36787;SDS011;22738;45.560;9.434;2023-04-06T13:53:40;12.88;;;7.35;;
36787;SDS011;22738;45.560;9.434;2023-04-06T14:00:21;15.48;;;7.90;;
36787;SDS011;22738;45.560;9.434;2023-04-06T14:07:03;15.07;;;8.98;;
36787;SDS011;22738;45.560;9.434;2023-04-06T14:13:47;15.63;;;8.88;;
36787;SDS011;22738;45.560;9.434;2023-04-06T14:20:30;15.40;;;8.07;;
36787;SDS011;22738;45.560;9.434;2023-04-06T14:27:15;16.55;;;8.35;;
36787;SDS011;22738;45.560;9.434;2023-04-06T14:33:58;15.27;;;7.90;;
36787;SDS011;22738;45.560;9.434;2023-04-06T14:40:44;15.05;;;7.90;;
36787;SDS011;22738;45.560;9.434;2023-04-06T14:47:25;14.85;;;8.38;;
36787;SDS011;22738;45.560;9.434;2023-04-06T14:54:06;21.90;;;8.60;;
36787;SDS011;22738;45.560;9.434;2023-04-06T15:00:47;13.20;;;7.47;;
36787;SDS011;22738;45.560;9.434;2023-04-06T15:07:28;13.50;;;8.27;;
36787;SDS011;22738;45.560;9.434;2023-04-06T15:14:11;13.00;;;8.15;;
36787;SDS011;22738;45.560;9.434;2023-04-06T15:20:52;15.02;;;7.90;;
36787;SDS011;22738;45.560;9.434;2023-04-06T15:27:33;16.50;;;8.75;;
36787;SDS011;22738;45.560;9.434;2023-04-06T15:34:14;12.90;;;7.80;;
36787;SDS011;22738;45.560;9.434;2023-04-06T15:40:55;17.27;;;9.00;;
36787;SDS011;22738;45.560;9.434;2023-04-06T15:47:40;17.55;;;8.20;;
36787;SDS011;22738;45.560;9.434;2023-04-06T15:54:22;17.25;;;7.72;;
36787;SDS011;22738;45.560;9.434;2023-04-06T16:01:13;13.00;;;7.40;;
36787;SDS011;22738;45.560;9.434;2023-04-06T16:07:55;14.38;;;7.05;;
36787;SDS011;22738;45.560;9.434;2023-04-06T16:14:36;16.77;;;7.82;;
36787;SDS011;22738;45.560;9.434;2023-04-06T16:21:17;10.75;;;6.45;;
36787;SDS011;22738;45.560;9.434;2023-04-06T16:27:58;13.02;;;5.97;;
36787;SDS011;22738;45.560;9.434;2023-04-06T16:34:40;12.38;;;6.57;;
36787;SDS011;22738;45.560;9.434;2023-04-06T16:41:22;12.80;;;6.75;;
36787;SDS011;22738;45.560;9.434;2023-04-06T16:48:05;12.15;;;6.40;;
36787;SDS011;22738;45.560;9.434;2023-04-06T16:54:46;13.43;;;6.65;;
36787;SDS011;22738;45.560;9.434;2023-04-06T17:01:27;14.18;;;6.35;;
36787;SDS011;22738;45.560;9.434;2023-04-06T17:08:09;17.00;;;8.00;;
36787;SDS011;22738;45.560;9.434;2023-04-06T17:14:50;15.80;;;8.63;;
36787;SDS011;22738;45.560;9.434;2023-04-06T17:21:31;12.05;;;6.68;;
36787;SDS011;22738;45.560;9.434;2023-04-06T17:28:12;13.45;;;6.95;;
36787;SDS011;22738;45.560;9.434;2023-04-06T17:34:53;15.88;;;8.30;;
36787;SDS011;22738;45.560;9.434;2023-04-06T17:41:34;31.33;;;12.73;;
36787;SDS011;22738;45.560;9.434;2023-04-06T17:48:15;22.65;;;10.30;;
36787;SDS011;22738;45.560;9.434;2023-04-06T17:54:56;21.23;;;9.00;;
36787;SDS011;22738;45.560;9.434;2023-04-06T18:01:37;18.67;;;8.35;;
36787;SDS011;22738;45.560;9.434;2023-04-06T18:08:19;15.88;;;7.90;;
36787;SDS011;22738;45.560;9.434;2023-04-06T18:15:02;16.05;;;7.78;;
36787;SDS011;22738;45.560;9.434;2023-04-06T18:21:45;16.00;;;7.53;;
36787;SDS011;22738;45.560;9.434;2023-04-06T18:28:26;18.85;;;8.07;;
36787;SDS011;22738;45.560;9.434;2023-04-06T18:35:07;15.80;;;7.63;;
36787;SDS011;22738;45.560;9.434;2023-04-06T18:41:50;15.38;;;7.15;;
36787;SDS011;22738;45.560;9.434;2023-04-06T18:48:33;16.00;;;7.47;;
36787;SDS011;22738;45.560;9.434;2023-04-06T18:55:15;13.00;;;7.13;;
36787;SDS011;22738;45.560;9.434;2023-04-06T19:01:56;13.40;;;6.30;;
36787;SDS011;22738;45.560;9.434;2023-04-06T19:08:38;13.77;;;6.90;;
36787;SDS011;22738;45.560;9.434;2023-04-06T19:15:20;17.60;;;8.80;;
36787;SDS011;22738;45.560;9.434;2023-04-06T19:22:01;16.20;;;8.82;;
36787;SDS011;22738;45.560;9.434;2023-04-06T19:28:42;17.08;;;8.60;;
36787;SDS011;22738;45.560;9.434;2023-04-06T19:35:24;23.15;;;8.70;;
36787;SDS011;22738;45.560;9.434;2023-04-06T19:42:05;19.10;;;8.73;;
36787;SDS011;22738;45.560;9.434;2023-04-06T19:48:46;14.38;;;7.88;;
36787;SDS011;22738;45.560;9.434;2023-04-06T19:55:27;19.60;;;8.68;;
36787;SDS011;22738;45.560;9.434;2023-04-06T20:02:08;25.35;;;8.32;;
36787;SDS011;22738;45.560;9.434;2023-04-06T20:08:49;17.88;;;8.63;;
36787;SDS011;22738;45.560;9.434;2023-04-06T20:15:31;26.08;;;8.38;;
36787;SDS011;22738;45.560;9.434;2023-04-06T20:22:12;20.95;;;8.93;;
36787;SDS011;22738;45.560;9.434;2023-04-06T20:28:53;23.33;;;9.05;;
36787;SDS011;22738;45.560;9.434;2023-04-06T20:35:34;17.98;;;8.40;;
36787;SDS011;22738;45.560;9.434;2023-04-06T20:42:15;21.90;;;9.25;;
36787;SDS011;22738;45.560;9.434;2023-04-06T20:48:58;22.92;;;10.27;;
36787;SDS011;22738;45.560;9.434;2023-04-06T20:55:39;19.33;;;10.38;;
36787;SDS011;22738;45.560;9.434;2023-04-06T21:02:21;21.60;;;10.20;;
36787;SDS011;22738;45.560;9.434;2023-04-06T21:09:02;22.80;;;9.85;;
36787;SDS011;22738;45.560;9.434;2023-04-06T21:15:43;16.52;;;9.63;;
36787;SDS011;22738;45.560;9.434;2023-04-06T21:22:24;27.02;;;11.32;;
36787;SDS011;22738;45.560;9.434;2023-04-06T21:29:05;18.20;;;10.35;;
36787;SDS011;22738;45.560;9.434;2023-04-06T21:35:46;20.65;;;10.25;;
36787;SDS011;22738;45.560;9.434;2023-04-06T21:42:27;23.73;;;10.32;;
36787;SDS011;22738;45.560;9.434;2023-04-06T21:49:08;22.85;;;10.32;;
36787;SDS011;22738;45.560;9.434;2023-04-06T21:55:50;18.85;;;8.52;;
36787;SDS011;22738;45.560;9.434;2023-04-06T22:02:31;18.35;;;9.15;;
36787;SDS011;22738;45.560;9.434;2023-04-06T22:09:13;23.17;;;10.73;;
36787;SDS011;22738;45.560;9.434;2023-04-06T22:15:54;17.25;;;8.82;;
36787;SDS011;22738;45.560;9.434;2023-04-06T22:22:35;23.13;;;11.88;;
36787;SDS011;22738;45.560;9.434;2023-04-06T22:29:16;19.30;;;9.45;;
36787;SDS011;22738;45.560;9.434;2023-04-06T22:35:57;22.13;;;9.63;;
36787;SDS011;22738;45.560;9.434;2023-04-06T22:42:39;26.85;;;11.40;;
36787;SDS011;22738;45.560;9.434;2023-04-06T22:49:20;24.75;;;10.40;;
36787;SDS011;22738;45.560;9.434;2023-04-06T22:56:02;25.23;;;11.63;;
36787;SDS011;22738;45.560;9.434;2023-04-06T23:02:43;31.30;;;13.23;;
36787;SDS011;22738;45.560;9.434;2023-04-06T23:09:24;29.25;;;12.90;;
36787;SDS011;22738;45.560;9.434;2023-04-06T23:16:07;25.30;;;12.27;;
36787;SDS011;22738;45.560;9.434;2023-04-06T23:22:49;24.98;;;12.73;;
36787;SDS011;22738;45.560;9.434;2023-04-06T23:29:30;26.35;;;11.15;;
36787;SDS011;22738;45.560;9.434;2023-04-06T23:36:11;25.75;;;11.60;;
36787;SDS011;22738;45.560;9.434;2023-04-06T23:42:52;29.88;;;12.85;;
36787;SDS011;22738;45.560;9.434;2023-04-06T23:49:33;31.00;;;12.68;;
36787;SDS011;22738;45.560;9.434;2023-04-06T23:56:14;25.40;;;11.55;;
